createdAt,value
2019-06-27T00:00:10.600Z,24.94
2019-06-27T00:03:16.416Z,25.01
2019-06-27T00:06:22.089Z,25.20
2019-06-27T00:09:27.847Z,25.21
2019-06-27T00:12:33.565Z,24.98
2019-06-27T00:15:39.394Z,25.11
2019-06-27T00:18:45.082Z,25.05
2019-06-27T00:21:50.779Z,24.90
2019-06-27T00:24:56.531Z,24.80
2019-06-27T00:28:02.234Z,24.82
2019-06-27T00:31:07.932Z,24.73
2019-06-27T00:34:13.618Z,24.67
2019-06-27T00:37:19.278Z,24.67
2019-06-27T00:40:24.983Z,24.62
2019-06-27T00:43:30.662Z,24.55
2019-06-27T00:46:36.337Z,24.69
2019-06-27T00:49:42.067Z,24.70
2019-06-27T00:52:47.755Z,24.65
2019-06-27T00:55:53.472Z,24.80
2019-06-27T00:58:59.136Z,24.81
2019-06-27T01:02:04.832Z,24.88
2019-06-27T01:05:10.883Z,24.72
2019-06-27T01:08:16.627Z,24.65
2019-06-27T01:11:22.325Z,24.62
2019-06-27T01:14:28.348Z,24.59
2019-06-27T01:17:34.521Z,24.44
2019-06-27T01:20:40.517Z,24.47
2019-06-27T01:23:46.930Z,24.42
2019-06-27T01:26:52.691Z,24.40
2019-06-27T01:29:58.747Z,24.47
2019-06-27T01:33:05.078Z,24.53
2019-06-27T01:36:11.892Z,24.71
2019-06-27T01:39:17.602Z,24.63
2019-06-27T01:42:23.463Z,24.76
2019-06-27T01:45:38.534Z,24.84
2019-06-27T01:48:44.229Z,24.74
2019-06-27T01:51:49.888Z,24.75
2019-06-27T01:54:55.587Z,24.41
2019-06-27T01:58:01.352Z,24.61
2019-06-27T02:01:07.206Z,24.75
2019-06-27T02:04:12.897Z,24.44
2019-06-27T02:07:18.572Z,24.22
2019-06-27T02:10:24.482Z,24.30
2019-06-27T02:13:30.185Z,24.30
2019-06-27T02:16:35.912Z,24.48
2019-06-27T02:19:41.588Z,24.49
2019-06-27T02:22:47.296Z,24.38
2019-06-27T02:25:52.943Z,24.35
2019-06-27T02:28:58.633Z,24.46
2019-06-27T02:32:04.304Z,24.26
2019-06-27T02:35:10.620Z,24.27
2019-06-27T02:38:16.447Z,24.05
2019-06-27T02:41:22.137Z,24.35
2019-06-27T02:44:27.839Z,24.38
2019-06-27T02:47:34.650Z,24.44
2019-06-27T02:50:40.364Z,24.37
2019-06-27T02:53:46.087Z,24.21
2019-06-27T02:56:51.781Z,24.22
2019-06-27T02:59:57.520Z,24.30
2019-06-27T03:03:03.281Z,24.32
2019-06-27T03:06:09.168Z,24.32
2019-06-27T03:09:14.854Z,24.22
2019-06-27T03:12:20.519Z,24.00
2019-06-27T03:15:26.252Z,23.87
2019-06-27T03:18:32.038Z,23.86
2019-06-27T03:21:37.738Z,23.76
2019-06-27T03:24:43.455Z,23.92
2019-06-27T03:27:49.174Z,23.98
2019-06-27T03:30:54.878Z,23.95
2019-06-27T03:34:00.644Z,23.68
2019-06-27T03:37:06.417Z,23.76
2019-06-27T03:40:12.523Z,24.02
2019-06-27T03:43:18.240Z,23.91
2019-06-27T03:46:24.018Z,24.14
2019-06-27T03:49:29.694Z,24.16
2019-06-27T03:52:35.511Z,23.98
2019-06-27T03:55:41.222Z,24.35
2019-06-27T03:58:46.905Z,24.50
2019-06-27T04:01:52.639Z,24.61
2019-06-27T04:04:59.453Z,24.60
2019-06-27T04:08:05.268Z,24.56
2019-06-27T04:11:11.020Z,24.86
2019-06-27T04:14:16.704Z,24.74
2019-06-27T04:17:22.370Z,24.59
2019-06-27T04:20:28.085Z,24.88
2019-06-27T04:23:33.791Z,25.06
2019-06-27T04:26:39.471Z,25.55
2019-06-27T04:29:46.369Z,25.78
2019-06-27T04:32:52.053Z,26.01
2019-06-27T04:35:57.735Z,25.65
2019-06-27T04:39:05.105Z,25.98
2019-06-27T04:42:10.768Z,26.29
2019-06-27T04:45:16.507Z,26.45
2019-06-27T04:48:22.213Z,25.89
2019-06-27T04:51:27.919Z,26.32
2019-06-27T04:54:33.638Z,26.12
2019-06-27T04:57:39.311Z,25.89
2019-06-27T05:00:45.006Z,26.14
2019-06-27T05:03:50.774Z,26.25
2019-06-27T05:06:56.431Z,26.61
2019-06-27T05:10:02.133Z,26.02
2019-06-27T05:13:08.820Z,26.11
2019-06-27T05:16:14.510Z,26.30
2019-06-27T05:19:20.216Z,26.87
2019-06-27T05:22:25.926Z,27.44
2019-06-27T05:25:31.589Z,28.17
2019-06-27T05:28:37.301Z,28.59
2019-06-27T05:31:43.023Z,28.05
2019-06-27T05:34:48.706Z,27.88
2019-06-27T05:37:54.394Z,28.03
2019-06-27T05:41:00.180Z,27.84
2019-06-27T05:44:05.995Z,27.24
2019-06-27T05:47:11.713Z,27.00
2019-06-27T05:50:17.502Z,26.91
2019-06-27T05:53:23.196Z,26.72
2019-06-27T05:56:28.898Z,27.20
2019-06-27T05:59:34.568Z,27.54
2019-06-27T06:02:40.236Z,27.29
2019-06-27T06:05:47.271Z,27.32
2019-06-27T06:08:53.071Z,27.08
2019-06-27T06:11:58.782Z,27.30
2019-06-27T06:15:04.574Z,27.17
2019-06-27T06:18:10.248Z,27.16
2019-06-27T06:21:15.919Z,27.51
2019-06-27T06:24:21.879Z,27.31
2019-06-27T06:27:27.624Z,27.56
2019-06-27T06:30:43.830Z,27.75
2019-06-27T06:33:40.880Z,27.71
2019-06-27T06:36:46.491Z,27.51
2019-06-27T06:39:52.199Z,27.49
2019-06-27T06:43:00.450Z,27.95
2019-06-27T06:46:06.343Z,28.25
2019-06-27T06:49:13.205Z,29.22
2019-06-27T06:52:24.337Z,30.01
2019-06-27T06:55:35.786Z,29.64
2019-06-27T06:58:41.657Z,30.22
2019-06-27T07:01:47.428Z,29.96
2019-06-27T07:04:53.160Z,29.91
2019-06-27T07:07:58.900Z,30.17
2019-06-27T07:11:04.703Z,30.15
2019-06-27T07:14:10.407Z,30.04
2019-06-27T07:17:16.079Z,30.02
2019-06-27T07:20:22.116Z,30.21
2019-06-27T07:23:27.812Z,30.42
2019-06-27T07:26:34.634Z,30.47
2019-06-27T07:29:40.349Z,30.72
2019-06-27T07:32:46.044Z,30.43
2019-06-27T07:35:51.716Z,30.98
2019-06-27T07:38:57.426Z,31.29
2019-06-27T07:42:03.125Z,31.70
2019-06-27T07:45:10.222Z,31.75
2019-06-27T07:48:15.908Z,31.56
2019-06-27T07:51:21.555Z,32.14
2019-06-27T07:54:27.274Z,32.33
2019-06-27T07:57:32.925Z,31.89
2019-06-27T08:00:38.615Z,31.79
2019-06-27T08:03:44.274Z,32.10
2019-06-27T08:06:50.002Z,31.79
2019-06-27T08:09:55.685Z,32.11
2019-06-27T08:13:01.370Z,32.77
2019-06-27T08:16:07.029Z,32.51
2019-06-27T08:19:12.712Z,32.27
2019-06-27T08:22:18.391Z,32.47
2019-06-27T08:25:24.264Z,32.13
2019-06-27T08:28:29.994Z,32.77
2019-06-27T08:31:50.568Z,32.99
2019-06-27T08:34:43.045Z,32.77
2019-06-27T08:37:48.780Z,33.39
2019-06-27T08:40:54.524Z,33.11
2019-06-27T08:44:00.223Z,33.63
2019-06-27T08:47:05.991Z,34.14
2019-06-27T08:50:12.412Z,34.13
2019-06-27T08:53:18.066Z,33.56
2019-06-27T08:56:23.775Z,33.51
2019-06-27T08:59:29.485Z,33.78
2019-06-27T09:02:35.203Z,33.91
2019-06-27T09:05:41.028Z,34.10
2019-06-27T09:08:46.677Z,34.47
2019-06-27T09:11:53.360Z,34.48
2019-06-27T09:14:59.026Z,34.05
2019-06-27T09:18:04.817Z,34.67
2019-06-27T09:21:10.633Z,35.05
2019-06-27T09:24:16.315Z,35.18
2019-06-27T09:27:22.027Z,34.64
2019-06-27T09:30:27.934Z,34.81
2019-06-27T09:33:33.636Z,34.63
2019-06-27T09:36:39.335Z,35.17
2019-06-27T09:39:45.015Z,35.16
2019-06-27T09:42:50.828Z,34.46
2019-06-27T09:45:56.475Z,34.43
2019-06-27T09:49:02.190Z,34.88
2019-06-27T09:52:08.980Z,34.82
2019-06-27T09:55:15.201Z,34.18
2019-06-27T09:58:20.871Z,34.88
2019-06-27T10:01:26.592Z,35.30
2019-06-27T10:04:32.226Z,35.13
2019-06-27T10:07:38.031Z,35.42
2019-06-27T10:10:43.714Z,34.35
2019-06-27T10:13:49.430Z,33.86
2019-06-27T10:16:58.471Z,33.89
2019-06-27T10:20:02.538Z,34.08
2019-06-27T10:23:08.153Z,34.48
2019-06-27T10:26:13.987Z,34.86
2019-06-27T10:29:19.678Z,34.37
2019-06-27T10:32:25.325Z,34.63
2019-06-27T10:35:31.035Z,33.89
2019-06-27T10:38:36.767Z,34.35
2019-06-27T10:41:42.495Z,34.83
2019-06-27T10:44:48.152Z,34.62
2019-06-27T10:47:54.931Z,35.07
2019-06-27T10:51:00.584Z,35.03
2019-06-27T10:54:06.279Z,34.99
2019-06-27T10:57:11.937Z,35.20
2019-06-27T11:00:19.182Z,35.09
2019-06-27T11:03:24.847Z,35.48
2019-06-27T11:06:31.572Z,35.55
2019-06-27T11:09:37.209Z,35.47
2019-06-27T11:12:45.165Z,35.55
2019-06-27T11:15:50.322Z,35.53
2019-06-27T11:18:56.046Z,35.27
2019-06-27T11:22:01.734Z,35.50
2019-06-27T11:25:08.495Z,34.81
2019-06-27T11:28:14.139Z,35.66
2019-06-27T11:31:19.877Z,35.42
2019-06-27T11:34:25.539Z,35.69
2019-06-27T11:37:31.228Z,35.56
2019-06-27T11:40:36.882Z,35.29
2019-06-27T11:43:42.639Z,35.41
2019-06-27T11:46:48.268Z,35.16
2019-06-27T11:49:54.038Z,35.75
2019-06-27T11:52:59.751Z,35.89
2019-06-27T11:56:05.596Z,36.05
2019-06-27T11:59:11.281Z,35.51
2019-06-27T12:02:16.991Z,35.53
2019-06-27T12:05:22.762Z,35.56
2019-06-27T12:08:28.496Z,35.53
2019-06-27T12:11:34.237Z,35.73
2019-06-27T12:14:39.925Z,35.25
2019-06-27T12:17:45.796Z,35.45
2019-06-27T12:20:51.519Z,35.46
2019-06-27T12:23:57.157Z,35.53
2019-06-27T12:27:02.874Z,35.58
2019-06-27T12:30:08.825Z,35.46
2019-06-27T12:33:14.479Z,35.22
2019-06-27T12:36:20.265Z,35.55
2019-06-27T12:39:25.993Z,35.50
2019-06-27T12:42:32.991Z,35.30
2019-06-27T12:45:38.787Z,35.14
2019-06-27T12:48:44.475Z,35.06
2019-06-27T12:51:50.185Z,35.26
2019-06-27T12:54:55.819Z,35.54
2019-06-27T12:58:01.521Z,35.83
2019-06-27T13:01:07.280Z,35.72
2019-06-27T13:04:22.838Z,35.58
2019-06-27T13:07:20.414Z,35.47
2019-06-27T13:10:35.661Z,35.30
2019-06-27T13:13:41.479Z,35.32
2019-06-27T13:16:47.177Z,35.46
2019-06-27T13:19:52.840Z,35.55
2019-06-27T13:22:58.518Z,36.04
2019-06-27T13:26:04.327Z,36.07
2019-06-27T13:29:10.006Z,35.81
2019-06-27T13:32:15.692Z,35.87
2019-06-27T13:35:21.348Z,35.61
2019-06-27T13:38:27.090Z,35.66
2019-06-27T13:41:32.818Z,35.63
2019-06-27T13:44:39.591Z,36.18
2019-06-27T13:47:45.298Z,36.32
2019-06-27T13:50:51.100Z,35.81
2019-06-27T13:53:56.770Z,36.11
2019-06-27T13:57:02.516Z,35.95
2019-06-27T14:00:08.967Z,35.90
2019-06-27T14:03:14.861Z,36.10
2019-06-27T14:06:20.585Z,35.81
2019-06-27T14:09:26.276Z,36.15
2019-06-27T14:12:32.143Z,36.42
2019-06-27T14:15:37.897Z,36.61
2019-06-27T14:18:43.562Z,36.67
2019-06-27T14:21:50.308Z,36.38
2019-06-27T14:24:56.043Z,35.31
2019-06-27T14:28:01.709Z,35.55
2019-06-27T14:31:07.462Z,35.56
2019-06-27T14:34:13.186Z,35.73
2019-06-27T14:37:19.973Z,35.42
2019-06-27T14:40:25.781Z,35.81
2019-06-27T14:43:31.424Z,35.86
2019-06-27T14:46:37.595Z,36.17
2019-06-27T14:49:43.378Z,35.98
2019-06-27T14:52:49.033Z,36.17
2019-06-27T14:55:54.723Z,35.95
2019-06-27T14:59:00.399Z,35.72
2019-06-27T15:02:06.240Z,35.52
2019-06-27T15:05:12.249Z,35.91
2019-06-27T15:08:18.051Z,36.13
2019-06-27T15:11:23.729Z,35.76
2019-06-27T15:14:29.429Z,35.82
2019-06-27T15:17:35.209Z,36.23
2019-06-27T15:20:40.930Z,36.50
2019-06-27T15:23:46.585Z,36.51
2019-06-27T15:26:52.382Z,36.53
2019-06-27T15:29:58.048Z,36.43
2019-06-27T15:33:04.849Z,36.32
2019-06-27T15:36:10.539Z,36.05
2019-06-27T15:39:16.312Z,36.03
2019-06-27T15:42:22.304Z,35.98
2019-06-27T15:45:28.150Z,35.84
2019-06-27T15:48:34.214Z,36.01
2019-06-27T15:51:40.096Z,35.83
2019-06-27T15:54:45.834Z,35.89
2019-06-27T15:57:51.622Z,36.17
2019-06-27T16:00:57.345Z,36.20
2019-06-27T16:04:03.107Z,35.75
2019-06-27T16:07:08.817Z,35.75
2019-06-27T16:10:14.878Z,35.79
2019-06-27T16:13:20.548Z,35.67
2019-06-27T16:16:26.368Z,35.09
2019-06-27T16:19:32.093Z,35.12
2019-06-27T16:22:37.899Z,35.01
2019-06-27T16:25:43.618Z,35.26
2019-06-27T16:28:50.372Z,34.95
2019-06-27T16:31:57.068Z,34.87
2019-06-27T16:35:02.798Z,34.88
2019-06-27T16:38:08.564Z,34.97
2019-06-27T16:41:14.270Z,35.11
2019-06-27T16:44:19.970Z,34.73
2019-06-27T16:47:25.656Z,34.79
2019-06-27T16:50:31.443Z,34.68
2019-06-27T16:53:37.135Z,34.31
2019-06-27T16:56:43.108Z,34.25
2019-06-27T16:59:48.803Z,34.41
2019-06-27T17:02:54.479Z,34.22
2019-06-27T17:06:00.208Z,34.18
2019-06-27T17:09:06.962Z,33.94
2019-06-27T17:12:12.649Z,33.65
2019-06-27T17:15:18.648Z,33.53
2019-06-27T17:18:24.341Z,33.28
2019-06-27T17:21:29.999Z,33.30
2019-06-27T17:24:35.669Z,33.25
2019-06-27T17:27:41.360Z,33.04
2019-06-27T17:30:47.159Z,32.93
2019-06-27T17:33:52.818Z,32.81
2019-06-27T17:36:58.450Z,32.78
2019-06-27T17:40:04.343Z,32.77
2019-06-27T17:43:10.010Z,32.50
2019-06-27T17:46:15.711Z,32.42
2019-06-27T17:49:21.423Z,32.47
2019-06-27T17:52:27.174Z,32.38
2019-06-27T17:55:32.885Z,32.24
2019-06-27T17:58:38.634Z,32.13
2019-06-27T18:01:44.320Z,32.27
2019-06-27T18:04:50.029Z,32.17
2019-06-27T18:07:55.725Z,32.09
2019-06-27T18:11:02.400Z,32.02
2019-06-27T18:14:08.114Z,31.86
2019-06-27T18:17:15.003Z,31.56
2019-06-27T18:20:20.729Z,31.48
2019-06-27T18:23:26.517Z,31.36
2019-06-27T18:26:32.279Z,31.15
2019-06-27T18:29:37.946Z,31.09
2019-06-27T18:32:43.658Z,30.72
2019-06-27T18:35:49.347Z,30.66
2019-06-27T18:38:55.065Z,30.75
2019-06-27T18:42:00.803Z,30.73
2019-06-27T18:45:07.839Z,30.50
2019-06-27T18:48:13.540Z,30.51
2019-06-27T18:51:19.243Z,30.41
2019-06-27T18:54:24.946Z,30.41
2019-06-27T18:57:30.634Z,30.41
2019-06-27T19:00:36.492Z,30.17
2019-06-27T19:03:42.306Z,30.19
2019-06-27T19:06:47.993Z,30.26
2019-06-27T19:09:53.692Z,29.83
2019-06-27T19:12:59.341Z,29.89
2019-06-27T19:16:06.173Z,29.90
2019-06-27T19:19:14.595Z,29.88
2019-06-27T19:22:37.696Z,29.66
2019-06-27T19:25:44.449Z,29.70
2019-06-27T19:28:50.229Z,29.66
2019-06-27T19:31:55.876Z,29.88
2019-06-27T19:35:01.566Z,29.97
2019-06-27T19:38:07.267Z,29.97
2019-06-27T19:41:13.922Z,29.94
2019-06-27T19:44:19.648Z,29.89
2019-06-27T19:47:25.320Z,29.61
2019-06-27T19:50:31.008Z,29.29
2019-06-27T19:53:36.686Z,29.35
2019-06-27T19:56:42.389Z,29.06
2019-06-27T19:59:48.081Z,29.06
2019-06-27T20:02:53.771Z,29.21
2019-06-27T20:06:00.566Z,29.05
2019-06-27T20:09:06.666Z,29.07
2019-06-27T20:12:12.338Z,29.05
2019-06-27T20:15:18.211Z,28.88
2019-06-27T20:18:23.945Z,29.01
2019-06-27T20:21:29.608Z,29.22
2019-06-27T20:24:35.287Z,29.23
2019-06-27T20:27:41.041Z,29.27
2019-06-27T20:30:46.728Z,29.25
2019-06-27T20:33:52.470Z,28.97
2019-06-27T20:36:58.130Z,28.90
2019-06-27T20:40:03.833Z,28.95
2019-06-27T20:43:09.534Z,28.77
2019-06-27T20:46:15.183Z,28.64
2019-06-27T20:49:20.883Z,28.70
2019-06-27T20:52:26.576Z,28.56
2019-06-27T20:55:32.284Z,28.54
2019-06-27T20:58:39.079Z,28.51
2019-06-27T21:01:44.792Z,28.24
2019-06-27T21:04:50.429Z,28.38
2019-06-27T21:07:56.149Z,28.33
2019-06-27T21:11:01.802Z,28.14
2019-06-27T21:14:07.473Z,28.06
2019-06-27T21:17:13.267Z,28.02
2019-06-27T21:20:18.926Z,27.65
2019-06-27T21:23:24.690Z,27.76
2019-06-27T21:26:30.442Z,28.01
2019-06-27T21:29:36.144Z,28.11
2019-06-27T21:32:41.857Z,28.15
2019-06-27T21:35:47.519Z,28.30
2019-06-27T21:39:06.697Z,27.92
2019-06-27T21:42:00.789Z,28.17
2019-06-27T21:45:06.816Z,28.30
2019-06-27T21:48:12.521Z,28.33
2019-06-27T21:51:18.212Z,28.24
2019-06-27T21:54:24.073Z,27.90
2019-06-27T21:57:29.789Z,28.07
2019-06-27T22:00:37.463Z,28.05
2019-06-27T22:03:45.069Z,27.98
2019-06-27T22:06:50.883Z,27.49
2019-06-27T22:09:57.201Z,27.66
2019-06-27T22:13:02.984Z,27.32
2019-06-27T22:16:08.696Z,27.54
2019-06-27T22:19:14.453Z,27.40
2019-06-27T22:22:20.157Z,27.58
2019-06-27T22:25:39.375Z,27.33
2019-06-27T22:28:33.327Z,27.51
2019-06-27T22:31:38.965Z,27.38
2019-06-27T22:34:44.686Z,27.29
2019-06-27T22:38:08.775Z,27.31
2019-06-27T22:41:32.040Z,26.79
2019-06-27T22:44:55.272Z,27.05
2019-06-27T22:48:15.057Z,26.81
2019-06-27T22:51:39.698Z,26.91
2019-06-27T22:54:46.993Z,27.11
2019-06-27T22:57:52.819Z,26.71
2019-06-27T23:00:58.491Z,26.58
2019-06-27T23:04:04.185Z,26.72
2019-06-27T23:07:09.890Z,26.56
2019-06-27T23:10:15.577Z,26.28
2019-06-27T23:13:21.257Z,26.38
2019-06-27T23:16:26.930Z,26.66
2019-06-27T23:19:32.606Z,26.64
2019-06-27T23:22:38.322Z,26.24
2019-06-27T23:25:44.003Z,26.61
2019-06-27T23:28:49.647Z,26.64
2019-06-27T23:31:55.340Z,26.49
2019-06-27T23:35:01.042Z,26.71
2019-06-27T23:38:06.692Z,26.70
2019-06-27T23:41:12.396Z,26.90
2019-06-27T23:44:18.071Z,26.61
2019-06-27T23:47:23.749Z,26.70
2019-06-27T23:50:30.439Z,26.86
2019-06-27T23:53:36.120Z,26.99
2019-06-27T23:56:41.810Z,27.01
2019-06-27T23:59:47.490Z,26.97
